sensor_id;sensor_type;location;lat;lon;timestamp;temperature;humidity
5164;DHT22;2601;50.224;10.126;2022-09-12T00:00:29;11.90;99.90
5164;DHT22;2601;50.224;10.126;2022-09-12T00:02:56;11.90;99.90
5164;DHT22;2601;50.224;10.126;2022-09-12T00:05:22;11.90;99.90
5164;DHT22;2601;50.224;10.126;2022-09-12T00:07:48;11.80;99.90
5164;DHT22;2601;50.224;10.126;2022-09-12T00:10:14;11.80;99.90
5164;DHT22;2601;50.224;10.126;2022-09-12T00:12:40;11.80;99.90
5164;DHT22;2601;50.224;10.126;2022-09-12T00:15:06;11.80;99.90
5164;DHT22;2601;50.224;10.126;2022-09-12T00:17:37;11.70;99.90
5164;DHT22;2601;50.224;10.126;2022-09-12T00:20:04;11.60;99.90
5164;DHT22;2601;50.224;10.126;2022-09-12T00:22:31;11.50;99.90
5164;DHT22;2601;50.224;10.126;2022-09-12T00:24:57;11.60;99.90
5164;DHT22;2601;50.224;10.126;2022-09-12T00:27:23;11.80;99.90
5164;DHT22;2601;50.224;10.126;2022-09-12T00:29:49;11.70;99.90
5164;DHT22;2601;50.224;10.126;2022-09-12T00:32:14;11.70;99.90
5164;DHT22;2601;50.224;10.126;2022-09-12T00:34:40;11.70;99.90
5164;DHT22;2601;50.224;10.126;2022-09-12T00:37:06;11.60;99.90
5164;DHT22;2601;50.224;10.126;2022-09-12T00:39:32;11.50;99.90
5164;DHT22;2601;50.224;10.126;2022-09-12T00:41:57;11.50;99.90
5164;DHT22;2601;50.224;10.126;2022-09-12T00:47:05;11.40;99.90
5164;DHT22;2601;50.224;10.126;2022-09-12T00:55:23;11.40;99.90
5164;DHT22;2601;50.224;10.126;2022-09-12T00:58:02;11.30;99.90
5164;DHT22;2601;50.224;10.126;2022-09-12T01:00:29;11.20;99.90
5164;DHT22;2601;50.224;10.126;2022-09-12T01:03:05;11.20;99.90
5164;DHT22;2601;50.224;10.126;2022-09-12T01:05:34;11.30;99.90
5164;DHT22;2601;50.224;10.126;2022-09-12T01:08:02;11.30;99.90
5164;DHT22;2601;50.224;10.126;2022-09-12T01:10:28;11.30;99.90
5164;DHT22;2601;50.224;10.126;2022-09-12T01:12:55;11.30;99.90
5164;DHT22;2601;50.224;10.126;2022-09-12T01:15:21;11.20;99.90
5164;DHT22;2601;50.224;10.126;2022-09-12T01:32:07;11.30;99.90
5164;DHT22;2601;50.224;10.126;2022-09-12T01:40:03;11.10;99.90
5164;DHT22;2601;50.224;10.126;2022-09-12T01:43:04;11.10;99.90
5164;DHT22;2601;50.224;10.126;2022-09-12T01:45:42;11.20;99.90
5164;DHT22;2601;50.224;10.126;2022-09-12T01:48:18;11.10;99.90
5164;DHT22;2601;50.224;10.126;2022-09-12T01:51:01;11.00;99.90
5164;DHT22;2601;50.224;10.126;2022-09-12T01:53:34;11.10;99.90
5164;DHT22;2601;50.224;10.126;2022-09-12T01:56:28;11.10;99.90
5164;DHT22;2601;50.224;10.126;2022-09-12T01:59:04;11.30;99.90
5164;DHT22;2601;50.224;10.126;2022-09-12T02:01:32;11.40;99.90
5164;DHT22;2601;50.224;10.126;2022-09-12T02:09:36;11.20;99.90
5164;DHT22;2601;50.224;10.126;2022-09-12T02:12:06;11.10;99.90
5164;DHT22;2601;50.224;10.126;2022-09-12T02:14:37;11.20;99.90
5164;DHT22;2601;50.224;10.126;2022-09-12T02:17:12;11.30;99.90
5164;DHT22;2601;50.224;10.126;2022-09-12T02:20:06;11.30;99.90
5164;DHT22;2601;50.224;10.126;2022-09-12T02:22:35;11.20;99.90
5164;DHT22;2601;50.224;10.126;2022-09-12T02:25:02;11.20;99.90
5164;DHT22;2601;50.224;10.126;2022-09-12T02:27:52;11.20;99.90
5164;DHT22;2601;50.224;10.126;2022-09-12T02:30:19;11.00;99.90
5164;DHT22;2601;50.224;10.126;2022-09-12T02:32:57;11.00;99.90
5164;DHT22;2601;50.224;10.126;2022-09-12T02:38:25;11.00;99.90
5164;DHT22;2601;50.224;10.126;2022-09-12T02:40:53;11.10;99.90
5164;DHT22;2601;50.224;10.126;2022-09-12T02:43:19;11.20;99.90
5164;DHT22;2601;50.224;10.126;2022-09-12T02:45:44;11.10;99.90
5164;DHT22;2601;50.224;10.126;2022-09-12T02:48:15;11.10;99.90
5164;DHT22;2601;50.224;10.126;2022-09-12T02:50:42;10.90;99.90
5164;DHT22;2601;50.224;10.126;2022-09-12T02:53:08;10.80;99.90
5164;DHT22;2601;50.224;10.126;2022-09-12T02:55:35;10.70;99.90
5164;DHT22;2601;50.224;10.126;2022-09-12T02:58:05;10.70;99.90
5164;DHT22;2601;50.224;10.126;2022-09-12T03:00:53;10.70;99.90
5164;DHT22;2601;50.224;10.126;2022-09-12T03:09:24;10.90;99.90
5164;DHT22;2601;50.224;10.126;2022-09-12T03:14:52;10.90;99.90
5164;DHT22;2601;50.224;10.126;2022-09-12T03:20:14;10.80;99.90
5164;DHT22;2601;50.224;10.126;2022-09-12T03:22:57;10.70;99.90
5164;DHT22;2601;50.224;10.126;2022-09-12T03:28:11;10.70;99.90
5164;DHT22;2601;50.224;10.126;2022-09-12T03:30:56;10.60;99.90
5164;DHT22;2601;50.224;10.126;2022-09-12T03:33:24;10.50;99.90
5164;DHT22;2601;50.224;10.126;2022-09-12T03:35:51;10.50;99.90
5164;DHT22;2601;50.224;10.126;2022-09-12T03:38:17;10.50;99.90
5164;DHT22;2601;50.224;10.126;2022-09-12T03:40:43;10.50;99.90
5164;DHT22;2601;50.224;10.126;2022-09-12T03:43:11;10.50;99.90
5164;DHT22;2601;50.224;10.126;2022-09-12T03:45:37;10.70;99.90
5164;DHT22;2601;50.224;10.126;2022-09-12T03:48:03;10.70;99.90
5164;DHT22;2601;50.224;10.126;2022-09-12T03:50:30;10.70;99.90
5164;DHT22;2601;50.224;10.126;2022-09-12T03:52:58;10.90;99.90
5164;DHT22;2601;50.224;10.126;2022-09-12T03:55:24;10.90;99.90
5164;DHT22;2601;50.224;10.126;2022-09-12T03:57:54;10.90;99.90
5164;DHT22;2601;50.224;10.126;2022-09-12T04:00:20;10.80;99.90
5164;DHT22;2601;50.224;10.126;2022-09-12T04:02:46;10.70;99.90
5164;DHT22;2601;50.224;10.126;2022-09-12T04:05:12;10.60;99.90
5164;DHT22;2601;50.224;10.126;2022-09-12T04:07:38;10.70;99.90
5164;DHT22;2601;50.224;10.126;2022-09-12T04:10:03;10.80;99.90
5164;DHT22;2601;50.224;10.126;2022-09-12T04:12:29;10.70;99.90
5164;DHT22;2601;50.224;10.126;2022-09-12T04:14:55;10.60;99.90
5164;DHT22;2601;50.224;10.126;2022-09-12T04:17:21;10.50;99.90
5164;DHT22;2601;50.224;10.126;2022-09-12T04:19:46;10.60;99.90
5164;DHT22;2601;50.224;10.126;2022-09-12T04:22:12;10.50;99.90
5164;DHT22;2601;50.224;10.126;2022-09-12T04:24:38;10.50;99.90
5164;DHT22;2601;50.224;10.126;2022-09-12T04:27:03;10.50;99.90
5164;DHT22;2601;50.224;10.126;2022-09-12T04:29:29;10.50;99.90
5164;DHT22;2601;50.224;10.126;2022-09-12T04:31:56;10.50;99.90
5164;DHT22;2601;50.224;10.126;2022-09-12T04:34:21;10.50;99.90
5164;DHT22;2601;50.224;10.126;2022-09-12T04:36:47;10.50;99.90
5164;DHT22;2601;50.224;10.126;2022-09-12T04:39:13;10.50;99.90
5164;DHT22;2601;50.224;10.126;2022-09-12T04:41:39;10.50;99.90
5164;DHT22;2601;50.224;10.126;2022-09-12T04:44:15;10.50;99.90
5164;DHT22;2601;50.224;10.126;2022-09-12T04:46:43;10.50;99.90
5164;DHT22;2601;50.224;10.126;2022-09-12T04:49:10;10.60;99.90
5164;DHT22;2601;50.224;10.126;2022-09-12T04:51:38;10.60;99.90
5164;DHT22;2601;50.224;10.126;2022-09-12T04:54:07;10.40;99.90
5164;DHT22;2601;50.224;10.126;2022-09-12T04:56:37;10.50;99.90
5164;DHT22;2601;50.224;10.126;2022-09-12T04:59:03;10.60;99.90
5164;DHT22;2601;50.224;10.126;2022-09-12T05:01:29;10.50;99.90
5164;DHT22;2601;50.224;10.126;2022-09-12T05:03:56;10.60;99.90
5164;DHT22;2601;50.224;10.126;2022-09-12T05:06:25;10.70;99.90
5164;DHT22;2601;50.224;10.126;2022-09-12T05:08:52;10.60;99.90
5164;DHT22;2601;50.224;10.126;2022-09-12T05:11:29;10.50;99.90
5164;DHT22;2601;50.224;10.126;2022-09-12T05:13:55;10.50;99.90
5164;DHT22;2601;50.224;10.126;2022-09-12T05:16:22;10.60;99.90
5164;DHT22;2601;50.224;10.126;2022-09-12T05:18:48;10.60;99.90
5164;DHT22;2601;50.224;10.126;2022-09-12T05:21:17;10.60;99.90
5164;DHT22;2601;50.224;10.126;2022-09-12T05:23:43;10.60;99.90
5164;DHT22;2601;50.224;10.126;2022-09-12T05:26:13;10.60;99.90
5164;DHT22;2601;50.224;10.126;2022-09-12T05:28:40;10.50;99.90
5164;DHT22;2601;50.224;10.126;2022-09-12T05:31:07;10.50;99.90
5164;DHT22;2601;50.224;10.126;2022-09-12T05:33:34;10.50;99.90
5164;DHT22;2601;50.224;10.126;2022-09-12T05:36:02;10.60;99.90
5164;DHT22;2601;50.224;10.126;2022-09-12T05:38:28;10.60;99.90
5164;DHT22;2601;50.224;10.126;2022-09-12T05:41:16;10.80;99.90
5164;DHT22;2601;50.224;10.126;2022-09-12T05:43:43;11.00;99.90
5164;DHT22;2601;50.224;10.126;2022-09-12T05:46:17;11.00;99.90
5164;DHT22;2601;50.224;10.126;2022-09-12T05:48:45;11.10;99.90
5164;DHT22;2601;50.224;10.126;2022-09-12T05:51:13;11.10;99.90
5164;DHT22;2601;50.224;10.126;2022-09-12T05:53:48;11.20;99.90
5164;DHT22;2601;50.224;10.126;2022-09-12T05:56:21;11.20;99.90
5164;DHT22;2601;50.224;10.126;2022-09-12T05:58:59;11.20;99.90
5164;DHT22;2601;50.224;10.126;2022-09-12T06:01:26;11.00;99.90
5164;DHT22;2601;50.224;10.126;2022-09-12T06:03:56;11.00;99.90
5164;DHT22;2601;50.224;10.126;2022-09-12T06:06:23;10.90;99.90
5164;DHT22;2601;50.224;10.126;2022-09-12T06:08:52;11.00;99.90
5164;DHT22;2601;50.224;10.126;2022-09-12T06:11:21;11.10;99.90
5164;DHT22;2601;50.224;10.126;2022-09-12T06:13:48;11.20;99.90
5164;DHT22;2601;50.224;10.126;2022-09-12T06:16:17;11.20;99.90
5164;DHT22;2601;50.224;10.126;2022-09-12T06:18:47;11.30;99.90
5164;DHT22;2601;50.224;10.126;2022-09-12T06:21:14;11.40;99.90
5164;DHT22;2601;50.224;10.126;2022-09-12T06:23:40;11.50;99.90
5164;DHT22;2601;50.224;10.126;2022-09-12T06:26:08;11.60;99.90
5164;DHT22;2601;50.224;10.126;2022-09-12T06:28:37;11.70;99.90
5164;DHT22;2601;50.224;10.126;2022-09-12T06:31:05;11.90;99.90
5164;DHT22;2601;50.224;10.126;2022-09-12T06:33:35;11.90;99.90
5164;DHT22;2601;50.224;10.126;2022-09-12T06:36:09;12.00;99.90
5164;DHT22;2601;50.224;10.126;2022-09-12T06:38:35;12.20;99.90
5164;DHT22;2601;50.224;10.126;2022-09-12T06:41:04;12.40;99.90
5164;DHT22;2601;50.224;10.126;2022-09-12T06:43:30;12.30;99.90
5164;DHT22;2601;50.224;10.126;2022-09-12T06:45:56;12.40;99.90
5164;DHT22;2601;50.224;10.126;2022-09-12T06:48:22;12.50;99.90
5164;DHT22;2601;50.224;10.126;2022-09-12T06:53:22;12.70;99.90
5164;DHT22;2601;50.224;10.126;2022-09-12T06:55:57;12.80;99.90
5164;DHT22;2601;50.224;10.126;2022-09-12T06:58:24;12.90;99.90
5164;DHT22;2601;50.224;10.126;2022-09-12T07:01:00;13.00;99.90
5164;DHT22;2601;50.224;10.126;2022-09-12T07:03:27;13.20;99.90
5164;DHT22;2601;50.224;10.126;2022-09-12T07:05:52;13.40;99.90
5164;DHT22;2601;50.224;10.126;2022-09-12T07:08:18;13.40;99.90
5164;DHT22;2601;50.224;10.126;2022-09-12T07:10:44;13.50;99.90
5164;DHT22;2601;50.224;10.126;2022-09-12T07:13:09;13.60;99.90
5164;DHT22;2601;50.224;10.126;2022-09-12T07:15:35;13.70;99.90
5164;DHT22;2601;50.224;10.126;2022-09-12T07:18:02;13.90;99.90
5164;DHT22;2601;50.224;10.126;2022-09-12T07:20:27;14.00;99.90
5164;DHT22;2601;50.224;10.126;2022-09-12T07:22:54;14.10;99.90
5164;DHT22;2601;50.224;10.126;2022-09-12T07:25:20;14.30;99.90
5164;DHT22;2601;50.224;10.126;2022-09-12T07:27:45;14.10;99.90
5164;DHT22;2601;50.224;10.126;2022-09-12T07:30:11;14.40;99.90
5164;DHT22;2601;50.224;10.126;2022-09-12T07:32:37;14.60;99.90
5164;DHT22;2601;50.224;10.126;2022-09-12T07:35:02;14.40;99.90
5164;DHT22;2601;50.224;10.126;2022-09-12T07:37:30;14.40;99.90
5164;DHT22;2601;50.224;10.126;2022-09-12T07:39:56;14.30;99.90
5164;DHT22;2601;50.224;10.126;2022-09-12T07:42:22;14.40;99.90
5164;DHT22;2601;50.224;10.126;2022-09-12T07:44:48;14.60;99.90
5164;DHT22;2601;50.224;10.126;2022-09-12T07:47:14;14.70;99.90
5164;DHT22;2601;50.224;10.126;2022-09-12T07:49:40;14.90;99.90
5164;DHT22;2601;50.224;10.126;2022-09-12T07:52:06;15.00;99.90
5164;DHT22;2601;50.224;10.126;2022-09-12T07:54:31;15.20;99.90
5164;DHT22;2601;50.224;10.126;2022-09-12T07:56:57;15.30;99.90
5164;DHT22;2601;50.224;10.126;2022-09-12T07:59:23;15.50;99.90
5164;DHT22;2601;50.224;10.126;2022-09-12T08:01:49;15.70;99.90
5164;DHT22;2601;50.224;10.126;2022-09-12T08:04:14;16.00;99.90
5164;DHT22;2601;50.224;10.126;2022-09-12T08:06:40;15.90;99.90
5164;DHT22;2601;50.224;10.126;2022-09-12T08:09:06;16.00;99.90
5164;DHT22;2601;50.224;10.126;2022-09-12T08:11:32;16.30;99.90
5164;DHT22;2601;50.224;10.126;2022-09-12T08:13:58;16.50;99.90
5164;DHT22;2601;50.224;10.126;2022-09-12T08:16:28;16.60;99.90
5164;DHT22;2601;50.224;10.126;2022-09-12T08:18:55;16.70;99.90
5164;DHT22;2601;50.224;10.126;2022-09-12T08:21:27;16.80;99.90
5164;DHT22;2601;50.224;10.126;2022-09-12T08:23:58;17.00;99.90
5164;DHT22;2601;50.224;10.126;2022-09-12T08:26:25;17.20;99.90
5164;DHT22;2601;50.224;10.126;2022-09-12T08:28:51;17.20;99.90
5164;DHT22;2601;50.224;10.126;2022-09-12T08:31:20;16.90;99.90
5164;DHT22;2601;50.224;10.126;2022-09-12T08:33:46;17.10;99.90
5164;DHT22;2601;50.224;10.126;2022-09-12T08:36:25;17.30;99.90
5164;DHT22;2601;50.224;10.126;2022-09-12T08:39:00;17.50;99.90
5164;DHT22;2601;50.224;10.126;2022-09-12T08:49:33;18.60;99.90
5164;DHT22;2601;50.224;10.126;2022-09-12T08:52:04;18.90;99.90
5164;DHT22;2601;50.224;10.126;2022-09-12T08:54:32;19.00;99.90
5164;DHT22;2601;50.224;10.126;2022-09-12T08:57:02;19.30;99.90
5164;DHT22;2601;50.224;10.126;2022-09-12T08:59:40;20.10;99.90
5164;DHT22;2601;50.224;10.126;2022-09-12T09:05:11;20.50;99.90
5164;DHT22;2601;50.224;10.126;2022-09-12T09:10:50;21.40;99.90
5164;DHT22;2601;50.224;10.126;2022-09-12T09:18:53;22.00;99.90
5164;DHT22;2601;50.224;10.126;2022-09-12T09:21:34;22.30;99.90
5164;DHT22;2601;50.224;10.126;2022-09-12T09:24:05;22.60;99.90
5164;DHT22;2601;50.224;10.126;2022-09-12T09:26:50;22.90;99.90
5164;DHT22;2601;50.224;10.126;2022-09-12T09:29:44;23.00;99.90
5164;DHT22;2601;50.224;10.126;2022-09-12T09:32:17;23.10;99.90
5164;DHT22;2601;50.224;10.126;2022-09-12T09:34:43;23.50;99.90
5164;DHT22;2601;50.224;10.126;2022-09-12T09:45:14;23.80;99.90
5164;DHT22;2601;50.224;10.126;2022-09-12T09:48:24;23.70;99.90
5164;DHT22;2601;50.224;10.126;2022-09-12T09:50:30;24.20;99.90
5164;DHT22;2601;50.224;10.126;2022-09-12T09:52:59;23.70;99.90
5164;DHT22;2601;50.224;10.126;2022-09-12T09:55:31;24.20;99.90
5164;DHT22;2601;50.224;10.126;2022-09-12T09:57:58;24.50;99.40
5164;DHT22;2601;50.224;10.126;2022-09-12T10:00:33;24.20;99.50
5164;DHT22;2601;50.224;10.126;2022-09-12T10:05:44;24.20;98.90
5164;DHT22;2601;50.224;10.126;2022-09-12T10:08:23;24.80;98.70
5164;DHT22;2601;50.224;10.126;2022-09-12T10:10:53;24.90;97.60
5164;DHT22;2601;50.224;10.126;2022-09-12T10:16:05;25.40;96.90
5164;DHT22;2601;50.224;10.126;2022-09-12T10:18:34;25.00;97.40
5164;DHT22;2601;50.224;10.126;2022-09-12T10:21:00;25.10;96.90
5164;DHT22;2601;50.224;10.126;2022-09-12T10:23:34;25.30;95.60
5164;DHT22;2601;50.224;10.126;2022-09-12T10:26:03;25.60;94.10
5164;DHT22;2601;50.224;10.126;2022-09-12T10:28:39;25.70;93.80
5164;DHT22;2601;50.224;10.126;2022-09-12T10:31:07;26.10;92.50
5164;DHT22;2601;50.224;10.126;2022-09-12T10:33:40;26.20;92.00
5164;DHT22;2601;50.224;10.126;2022-09-12T10:36:06;26.10;92.00
5164;DHT22;2601;50.224;10.126;2022-09-12T10:38:32;25.60;92.60
5164;DHT22;2601;50.224;10.126;2022-09-12T10:41:03;25.60;91.90
5164;DHT22;2601;50.224;10.126;2022-09-12T10:43:38;26.10;90.50
5164;DHT22;2601;50.224;10.126;2022-09-12T10:49:32;26.20;88.10
5164;DHT22;2601;50.224;10.126;2022-09-12T10:52:21;27.00;86.70
5164;DHT22;2601;50.224;10.126;2022-09-12T10:54:48;27.60;83.60
5164;DHT22;2601;50.224;10.126;2022-09-12T11:05:21;27.80;79.60
5164;DHT22;2601;50.224;10.126;2022-09-12T11:08:00;27.50;79.60
5164;DHT22;2601;50.224;10.126;2022-09-12T11:27:31;25.60;86.20
5164;DHT22;2601;50.224;10.126;2022-09-12T11:30:10;25.20;88.60
5164;DHT22;2601;50.224;10.126;2022-09-12T11:35:32;25.00;88.90
5164;DHT22;2601;50.224;10.126;2022-09-12T11:41:05;24.80;91.30
5164;DHT22;2601;50.224;10.126;2022-09-12T11:46:24;24.70;92.00
5164;DHT22;2601;50.224;10.126;2022-09-12T11:51:32;25.10;92.20
5164;DHT22;2601;50.224;10.126;2022-09-12T11:54:11;25.50;91.00
5164;DHT22;2601;50.224;10.126;2022-09-12T11:56:44;25.30;91.00
5164;DHT22;2601;50.224;10.126;2022-09-12T12:02:10;25.60;91.50
5164;DHT22;2601;50.224;10.126;2022-09-12T12:07:55;26.40;87.90
5164;DHT22;2601;50.224;10.126;2022-09-12T12:12:52;28.00;82.90
5164;DHT22;2601;50.224;10.126;2022-09-12T12:15:18;28.70;73.10
5164;DHT22;2601;50.224;10.126;2022-09-12T12:18:06;28.50;72.50
5164;DHT22;2601;50.224;10.126;2022-09-12T12:20:33;28.40;73.70
5164;DHT22;2601;50.224;10.126;2022-09-12T12:22:59;28.90;67.80
5164;DHT22;2601;50.224;10.126;2022-09-12T12:25:39;28.30;64.40
5164;DHT22;2601;50.224;10.126;2022-09-12T12:28:06;27.80;64.70
5164;DHT22;2601;50.224;10.126;2022-09-12T12:38:36;26.90;74.60
5164;DHT22;2601;50.224;10.126;2022-09-12T12:43:47;27.60;70.30
5164;DHT22;2601;50.224;10.126;2022-09-12T12:46:24;27.40;70.40
5164;DHT22;2601;50.224;10.126;2022-09-12T12:49:17;27.00;68.90
5164;DHT22;2601;50.224;10.126;2022-09-12T12:51:54;26.40;69.60
5164;DHT22;2601;50.224;10.126;2022-09-12T12:57:14;26.50;69.30
5164;DHT22;2601;50.224;10.126;2022-09-12T13:00:04;26.20;68.00
5164;DHT22;2601;50.224;10.126;2022-09-12T13:02:33;25.50;69.60
5164;DHT22;2601;50.224;10.126;2022-09-12T13:05:03;24.60;71.80
5164;DHT22;2601;50.224;10.126;2022-09-12T13:07:38;24.40;73.90
5164;DHT22;2601;50.224;10.126;2022-09-12T13:10:06;24.70;73.60
5164;DHT22;2601;50.224;10.126;2022-09-12T13:12:43;24.90;74.30
5164;DHT22;2601;50.224;10.126;2022-09-12T13:18:43;25.70;72.70
5164;DHT22;2601;50.224;10.126;2022-09-12T13:21:11;26.80;69.20
5164;DHT22;2601;50.224;10.126;2022-09-12T13:23:37;27.90;69.40
5164;DHT22;2601;50.224;10.126;2022-09-12T13:26:10;28.90;62.00
5164;DHT22;2601;50.224;10.126;2022-09-12T13:28:36;29.80;60.90
5164;DHT22;2601;50.224;10.126;2022-09-12T13:34:04;29.00;62.30
5164;DHT22;2601;50.224;10.126;2022-09-12T13:39:59;29.00;57.40
5164;DHT22;2601;50.224;10.126;2022-09-12T13:42:40;28.90;57.50
5164;DHT22;2601;50.224;10.126;2022-09-12T13:45:22;28.70;56.70
5164;DHT22;2601;50.224;10.126;2022-09-12T13:48:11;28.40;56.90
5164;DHT22;2601;50.224;10.126;2022-09-12T13:51:00;28.90;56.70
5164;DHT22;2601;50.224;10.126;2022-09-12T13:53:31;28.50;59.50
5164;DHT22;2601;50.224;10.126;2022-09-12T13:56:01;28.90;59.90
5164;DHT22;2601;50.224;10.126;2022-09-12T13:58:30;30.70;56.70
5164;DHT22;2601;50.224;10.126;2022-09-12T14:03:48;30.30;54.80
5164;DHT22;2601;50.224;10.126;2022-09-12T14:06:42;30.60;54.10
5164;DHT22;2601;50.224;10.126;2022-09-12T14:09:23;30.70;54.10
5164;DHT22;2601;50.224;10.126;2022-09-12T14:11:50;31.30;54.70
5164;DHT22;2601;50.224;10.126;2022-09-12T14:14:33;31.60;54.00
5164;DHT22;2601;50.224;10.126;2022-09-12T14:17:13;31.70;52.10
5164;DHT22;2601;50.224;10.126;2022-09-12T14:19:39;31.20;50.70
5164;DHT22;2601;50.224;10.126;2022-09-12T14:22:11;30.60;51.20
5164;DHT22;2601;50.224;10.126;2022-09-12T14:24:47;30.40;50.90
5164;DHT22;2601;50.224;10.126;2022-09-12T14:27:18;30.30;51.20
5164;DHT22;2601;50.224;10.126;2022-09-12T14:29:45;30.50;52.10
5164;DHT22;2601;50.224;10.126;2022-09-12T14:32:21;31.20;51.10
5164;DHT22;2601;50.224;10.126;2022-09-12T14:35:17;31.90;50.60
5164;DHT22;2601;50.224;10.126;2022-09-12T14:37:47;31.70;51.90
5164;DHT22;2601;50.224;10.126;2022-09-12T14:40:22;32.40;51.50
5164;DHT22;2601;50.224;10.126;2022-09-12T14:42:49;33.30;48.60
5164;DHT22;2601;50.224;10.126;2022-09-12T14:45:36;33.20;47.40
5164;DHT22;2601;50.224;10.126;2022-09-12T14:48:02;32.40;47.20
5164;DHT22;2601;50.224;10.126;2022-09-12T14:50:30;31.80;48.20
5164;DHT22;2601;50.224;10.126;2022-09-12T14:55:50;31.30;48.50
5164;DHT22;2601;50.224;10.126;2022-09-12T15:05:53;33.40;46.90
5164;DHT22;2601;50.224;10.126;2022-09-12T15:08:19;33.70;47.20
5164;DHT22;2601;50.224;10.126;2022-09-12T15:10:45;34.30;46.40
5164;DHT22;2601;50.224;10.126;2022-09-12T15:13:16;33.90;45.00
5164;DHT22;2601;50.224;10.126;2022-09-12T15:15:46;33.20;45.20
5164;DHT22;2601;50.224;10.126;2022-09-12T15:18:12;32.60;45.50
5164;DHT22;2601;50.224;10.126;2022-09-12T15:20:41;31.50;47.30
5164;DHT22;2601;50.224;10.126;2022-09-12T15:23:26;30.30;49.80
5164;DHT22;2601;50.224;10.126;2022-09-12T15:25:54;29.30;50.80
5164;DHT22;2601;50.224;10.126;2022-09-12T15:28:21;28.00;50.70
5164;DHT22;2601;50.224;10.126;2022-09-12T15:30:49;27.90;52.20
5164;DHT22;2601;50.224;10.126;2022-09-12T15:33:16;28.50;54.30
5164;DHT22;2601;50.224;10.126;2022-09-12T15:35:43;29.40;51.60
5164;DHT22;2601;50.224;10.126;2022-09-12T15:38:08;29.20;51.00
5164;DHT22;2601;50.224;10.126;2022-09-12T15:40:34;28.00;52.60
5164;DHT22;2601;50.224;10.126;2022-09-12T15:43:00;27.70;53.50
5164;DHT22;2601;50.224;10.126;2022-09-12T15:45:31;27.80;54.20
5164;DHT22;2601;50.224;10.126;2022-09-12T15:47:57;28.60;53.90
5164;DHT22;2601;50.224;10.126;2022-09-12T15:50:23;29.30;52.20
5164;DHT22;2601;50.224;10.126;2022-09-12T15:52:50;29.50;52.70
5164;DHT22;2601;50.224;10.126;2022-09-12T15:55:19;30.30;52.20
5164;DHT22;2601;50.224;10.126;2022-09-12T15:57:45;30.70;51.80
5164;DHT22;2601;50.224;10.126;2022-09-12T16:00:12;31.30;50.60
5164;DHT22;2601;50.224;10.126;2022-09-12T16:02:38;31.50;50.10
5164;DHT22;2601;50.224;10.126;2022-09-12T16:05:05;31.90;49.80
5164;DHT22;2601;50.224;10.126;2022-09-12T16:07:35;31.30;50.00
5164;DHT22;2601;50.224;10.126;2022-09-12T16:10:01;31.40;49.40
5164;DHT22;2601;50.224;10.126;2022-09-12T16:12:27;31.30;50.30
5164;DHT22;2601;50.224;10.126;2022-09-12T16:14:53;30.90;50.90
5164;DHT22;2601;50.224;10.126;2022-09-12T16:17:18;29.60;52.00
5164;DHT22;2601;50.224;10.126;2022-09-12T16:19:44;28.00;54.80
5164;DHT22;2601;50.224;10.126;2022-09-12T16:22:10;26.70;57.40
5164;DHT22;2601;50.224;10.126;2022-09-12T16:24:35;25.90;57.90
5164;DHT22;2601;50.224;10.126;2022-09-12T16:27:02;25.10;59.50
5164;DHT22;2601;50.224;10.126;2022-09-12T16:29:27;24.60;61.90
5164;DHT22;2601;50.224;10.126;2022-09-12T16:31:53;24.20;62.40
5164;DHT22;2601;50.224;10.126;2022-09-12T16:34:19;23.90;64.70
5164;DHT22;2601;50.224;10.126;2022-09-12T16:36:45;23.80;64.80
5164;DHT22;2601;50.224;10.126;2022-09-12T16:39:11;23.70;66.20
5164;DHT22;2601;50.224;10.126;2022-09-12T16:41:37;23.50;67.00
5164;DHT22;2601;50.224;10.126;2022-09-12T16:44:04;23.20;67.70
5164;DHT22;2601;50.224;10.126;2022-09-12T16:46:31;23.00;67.60
5164;DHT22;2601;50.224;10.126;2022-09-12T16:48:57;22.70;69.70
5164;DHT22;2601;50.224;10.126;2022-09-12T16:51:26;22.60;70.60
5164;DHT22;2601;50.224;10.126;2022-09-12T16:53:53;22.50;71.40
5164;DHT22;2601;50.224;10.126;2022-09-12T16:56:21;22.30;73.00
5164;DHT22;2601;50.224;10.126;2022-09-12T16:58:47;22.20;73.70
5164;DHT22;2601;50.224;10.126;2022-09-12T17:01:15;22.10;73.40
5164;DHT22;2601;50.224;10.126;2022-09-12T17:03:41;21.90;74.70
5164;DHT22;2601;50.224;10.126;2022-09-12T17:06:16;21.80;75.90
5164;DHT22;2601;50.224;10.126;2022-09-12T17:08:50;21.60;76.80
5164;DHT22;2601;50.224;10.126;2022-09-12T17:11:24;21.50;78.70
5164;DHT22;2601;50.224;10.126;2022-09-12T17:13:54;21.30;80.70
5164;DHT22;2601;50.224;10.126;2022-09-12T17:16:21;21.20;83.90
5164;DHT22;2601;50.224;10.126;2022-09-12T17:18:46;21.00;85.90
5164;DHT22;2601;50.224;10.126;2022-09-12T17:21:13;20.90;87.50
5164;DHT22;2601;50.224;10.126;2022-09-12T17:23:40;20.50;89.40
5164;DHT22;2601;50.224;10.126;2022-09-12T17:26:09;20.20;91.10
5164;DHT22;2601;50.224;10.126;2022-09-12T17:28:37;20.00;92.50
5164;DHT22;2601;50.224;10.126;2022-09-12T17:31:05;19.70;94.20
5164;DHT22;2601;50.224;10.126;2022-09-12T17:33:32;19.50;96.20
5164;DHT22;2601;50.224;10.126;2022-09-12T17:36:02;19.30;97.40
5164;DHT22;2601;50.224;10.126;2022-09-12T17:38:31;19.10;98.80
5164;DHT22;2601;50.224;10.126;2022-09-12T17:41:13;18.80;99.50
5164;DHT22;2601;50.224;10.126;2022-09-12T17:43:40;18.60;99.90
5164;DHT22;2601;50.224;10.126;2022-09-12T17:46:06;18.40;99.90
5164;DHT22;2601;50.224;10.126;2022-09-12T17:48:33;18.20;99.90
5164;DHT22;2601;50.224;10.126;2022-09-12T17:51:10;18.10;99.90
5164;DHT22;2601;50.224;10.126;2022-09-12T17:56:11;17.90;99.90
5164;DHT22;2601;50.224;10.126;2022-09-12T17:58:36;17.80;99.90
5164;DHT22;2601;50.224;10.126;2022-09-12T18:01:11;17.70;99.90
5164;DHT22;2601;50.224;10.126;2022-09-12T18:03:57;17.60;99.90
5164;DHT22;2601;50.224;10.126;2022-09-12T18:06:26;17.60;99.90
5164;DHT22;2601;50.224;10.126;2022-09-12T18:08:52;17.50;99.90
5164;DHT22;2601;50.224;10.126;2022-09-12T18:11:18;17.40;99.90
5164;DHT22;2601;50.224;10.126;2022-09-12T18:13:44;17.30;99.90
5164;DHT22;2601;50.224;10.126;2022-09-12T18:16:11;17.30;99.90
5164;DHT22;2601;50.224;10.126;2022-09-12T18:18:37;17.20;99.90
5164;DHT22;2601;50.224;10.126;2022-09-12T18:21:04;17.10;99.90
5164;DHT22;2601;50.224;10.126;2022-09-12T18:23:31;17.10;99.90
5164;DHT22;2601;50.224;10.126;2022-09-12T18:26:04;17.10;99.90
5164;DHT22;2601;50.224;10.126;2022-09-12T18:28:36;16.90;99.90
5164;DHT22;2601;50.224;10.126;2022-09-12T18:31:02;16.80;99.90
5164;DHT22;2601;50.224;10.126;2022-09-12T18:33:28;16.60;99.90
5164;DHT22;2601;50.224;10.126;2022-09-12T18:35:54;16.60;99.90
5164;DHT22;2601;50.224;10.126;2022-09-12T18:38:20;16.60;99.90
5164;DHT22;2601;50.224;10.126;2022-09-12T18:40:46;16.50;99.90
5164;DHT22;2601;50.224;10.126;2022-09-12T18:43:11;16.40;99.90
5164;DHT22;2601;50.224;10.126;2022-09-12T18:45:39;16.40;99.90
5164;DHT22;2601;50.224;10.126;2022-09-12T18:48:04;16.50;99.90
5164;DHT22;2601;50.224;10.126;2022-09-12T18:50:31;16.50;99.90
5164;DHT22;2601;50.224;10.126;2022-09-12T18:52:57;16.40;99.90
5164;DHT22;2601;50.224;10.126;2022-09-12T18:55:23;16.30;99.90